DAL735 KDEN-KLAS
Flight info
| Callsign | DAL735 |
|---|---|
| Flight time | 1h 23m |
| Altitude | 36000 |
| Route | CONNR8 WERNR ZAKRY CHESZ GGAPP CHOWW4 |
| Aircraft | A321/M-SDE3FGHIRWY/LB1 |
Departure
| Time | 2026-05-08 06:43 |
|---|---|
| Airport | Denver International Airport (KDEN) |
Arrival
| Time | 2026-05-08 08:06 |
|---|---|
| Airport | Harry Reid International Airport (KLAS) |
| Time | Latitude | Longitude | Altitude | Speed | Heading |
|---|---|---|---|---|---|
| 2026-05-08 06:03 | 39.85804 | -104.67902 | 5385 ft | 0 kts | 359° |
| 2026-05-08 06:30 | 39.85791 | -104.67902 | 5383 ft | 4 kts | 359° |
| 2026-05-08 06:30 | 39.85764 | -104.67901 | 5384 ft | 4 kts | 359° |
| 2026-05-08 06:30 | 39.85737 | -104.67901 | 5384 ft | 4 kts | 359° |
| 2026-05-08 06:31 | 39.85715 | -104.67900 | 5385 ft | 1 kts | 359° |
| 2026-05-08 06:31 | 39.85714 | -104.67900 | 5385 ft | 0 kts | 359° |
| 2026-05-08 06:32 | 39.85721 | -104.67907 | 5383 ft | 3 kts | 321° |
| 2026-05-08 06:33 | 39.85722 | -104.67909 | 5383 ft | 0 kts | 314° |
| 2026-05-08 06:36 | 39.85725 | -104.67914 | 5384 ft | 4 kts | 313° |
| 2026-05-08 06:36 | 39.85737 | -104.67971 | 5386 ft | 10 kts | 266° |
| 2026-05-08 06:36 | 39.85719 | -104.68013 | 5386 ft | 0 kts | 225° |
| 2026-05-08 06:36 | 39.85709 | -104.68026 | 5385 ft | 8 kts | 223° |
| 2026-05-08 06:37 | 39.85674 | -104.68107 | 5385 ft | 10 kts | 257° |
| 2026-05-08 06:37 | 39.85649 | -104.68183 | 5386 ft | 8 kts | 224° |
| 2026-05-08 06:37 | 39.85608 | -104.68227 | 5386 ft | 7 kts | 242° |
| 2026-05-08 06:37 | 39.85599 | -104.68298 | 5383 ft | 10 kts | 269° |
| 2026-05-08 06:38 | 39.85602 | -104.68415 | 5370 ft | 12 kts | 270° |
| 2026-05-08 06:38 | 39.85575 | -104.68501 | 5370 ft | 9 kts | 221° |
| 2026-05-08 06:38 | 39.85522 | -104.68519 | 5372 ft | 7 kts | 181° |
| 2026-05-08 06:38 | 39.85443 | -104.68521 | 5372 ft | 19 kts | 181° |
| 2026-05-08 06:39 | 39.85344 | -104.68523 | 5373 ft | 13 kts | 181° |
| 2026-05-08 06:39 | 39.85257 | -104.68526 | 5371 ft | 11 kts | 186° |
| 2026-05-08 06:39 | 39.85211 | -104.68600 | 5367 ft | 13 kts | 262° |
| 2026-05-08 06:39 | 39.85208 | -104.68734 | 5363 ft | 19 kts | 269° |
| 2026-05-08 06:40 | 39.85202 | -104.68935 | 5355 ft | 24 kts | 268° |
| 2026-05-08 06:40 | 39.85198 | -104.69158 | 5348 ft | 25 kts | 269° |
| 2026-05-08 06:40 | 39.85202 | -104.69361 | 5343 ft | 18 kts | 271° |
| 2026-05-08 06:40 | 39.85203 | -104.69489 | 5335 ft | 11 kts | 270° |
| 2026-05-08 06:41 | 39.85204 | -104.69578 | 5334 ft | 15 kts | 270° |
| 2026-05-08 06:41 | 39.85209 | -104.69653 | 5333 ft | 0 kts | 295° |
| 2026-05-08 06:41 | 39.85236 | -104.69672 | 5333 ft | 5 kts | 355° |
| 2026-05-08 06:41 | 39.85259 | -104.69663 | 5335 ft | 3 kts | 12° |
| 2026-05-08 06:42 | 39.85262 | -104.69662 | 5335 ft | 0 kts | 11° |
| 2026-05-08 06:42 | 39.85425 | -104.69655 | 5338 ft | 57 kts | 0° |
| 2026-05-08 06:42 | 39.86033 | -104.69644 | 5340 ft | 116 kts | 1° |
| 2026-05-08 06:42 | 39.87011 | -104.69634 | 5340 ft | 162 kts | 0° |
| 2026-05-08 06:43 | 39.88270 | -104.69620 | 5349 ft | 196 kts | 0° |
| 2026-05-08 06:43 | 39.89635 | -104.69634 | 5889 ft | 197 kts | 360° |
| 2026-05-08 06:43 | 39.91003 | -104.69813 | 6451 ft | 199 kts | 337° |
| 2026-05-08 06:43 | 39.91975 | -104.71033 | 7014 ft | 200 kts | 291° |
| 2026-05-08 06:44 | 39.92089 | -104.72875 | 7306 ft | 217 kts | 259° |
| 2026-05-08 06:44 | 39.91674 | -104.74851 | 7450 ft | 235 kts | 253° |
| 2026-05-08 06:44 | 39.91167 | -104.76974 | 7577 ft | 256 kts | 252° |
| 2026-05-08 06:44 | 39.90657 | -104.79249 | 7946 ft | 265 kts | 255° |
| 2026-05-08 06:45 | 39.90200 | -104.81658 | 8305 ft | 281 kts | 257° |
| 2026-05-08 06:45 | 39.89756 | -104.84166 | 8931 ft | 287 kts | 257° |
| 2026-05-08 06:45 | 39.89310 | -104.86717 | 9619 ft | 290 kts | 257° |
| 2026-05-08 06:45 | 39.88857 | -104.89296 | 10247 ft | 297 kts | 257° |
| 2026-05-08 06:46 | 39.88376 | -104.92020 | 10412 ft | 320 kts | 257° |
| 2026-05-08 06:46 | 39.87851 | -104.94932 | 10596 ft | 339 kts | 257° |
| 2026-05-08 06:46 | 39.87297 | -104.97962 | 11101 ft | 347 kts | 256° |
| 2026-05-08 06:46 | 39.86727 | -105.01032 | 11716 ft | 351 kts | 256° |
| 2026-05-08 06:47 | 39.86151 | -105.04138 | 12346 ft | 355 kts | 256° |
| 2026-05-08 06:47 | 39.85572 | -105.07270 | 12964 ft | 358 kts | 256° |
| 2026-05-08 06:47 | 39.84989 | -105.10436 | 13581 ft | 361 kts | 256° |
| 2026-05-08 06:47 | 39.84399 | -105.13630 | 14172 ft | 365 kts | 256° |
| 2026-05-08 06:48 | 39.83798 | -105.16849 | 14757 ft | 368 kts | 255° |
| 2026-05-08 06:48 | 39.82966 | -105.20007 | 15331 ft | 371 kts | 250° |
| 2026-05-08 06:48 | 39.82054 | -105.23166 | 15882 ft | 374 kts | 249° |
| 2026-05-08 06:48 | 39.81115 | -105.26340 | 16409 ft | 378 kts | 249° |
| 2026-05-08 06:49 | 39.80159 | -105.29541 | 16891 ft | 382 kts | 249° |
| 2026-05-08 06:49 | 39.79192 | -105.32772 | 17332 ft | 385 kts | 249° |
| 2026-05-08 06:49 | 39.78218 | -105.36033 | 17787 ft | 388 kts | 249° |
| 2026-05-08 06:49 | 39.77238 | -105.39324 | 18219 ft | 392 kts | 249° |
| 2026-05-08 06:50 | 39.76251 | -105.42639 | 18654 ft | 394 kts | 249° |
| 2026-05-08 06:50 | 39.75258 | -105.45969 | 19100 ft | 396 kts | 249° |
| 2026-05-08 06:50 | 39.74260 | -105.49313 | 19525 ft | 399 kts | 249° |
| 2026-05-08 06:50 | 39.73254 | -105.52685 | 19932 ft | 401 kts | 249° |
| 2026-05-08 06:51 | 39.72240 | -105.56083 | 20322 ft | 404 kts | 249° |
| 2026-05-08 06:51 | 39.71221 | -105.59489 | 20680 ft | 407 kts | 249° |
| 2026-05-08 06:51 | 39.70191 | -105.62929 | 21011 ft | 410 kts | 249° |
| 2026-05-08 06:51 | 39.69154 | -105.66398 | 21296 ft | 413 kts | 249° |
| 2026-05-08 06:52 | 39.68117 | -105.69886 | 21565 ft | 416 kts | 249° |
| 2026-05-08 06:52 | 39.67078 | -105.73396 | 21871 ft | 418 kts | 249° |
| 2026-05-08 06:52 | 39.66032 | -105.76926 | 22114 ft | 420 kts | 249° |
| 2026-05-08 06:52 | 39.64975 | -105.80476 | 22356 ft | 423 kts | 249° |
| 2026-05-08 06:53 | 39.63908 | -105.84040 | 22535 ft | 426 kts | 249° |
| 2026-05-08 06:53 | 39.62833 | -105.87626 | 22796 ft | 427 kts | 249° |
| 2026-05-08 06:53 | 39.61754 | -105.91215 | 23083 ft | 427 kts | 249° |
| 2026-05-08 06:53 | 39.60674 | -105.94811 | 23415 ft | 428 kts | 249° |
| 2026-05-08 06:54 | 39.59958 | -105.97193 | 23643 ft | 428 kts | 249° |
| 2026-05-08 06:54 | 39.58878 | -106.00795 | 23937 ft | 430 kts | 249° |
| 2026-05-08 06:54 | 39.57789 | -106.04413 | 24237 ft | 432 kts | 249° |
| 2026-05-08 06:54 | 39.56696 | -106.08043 | 24526 ft | 433 kts | 249° |
| 2026-05-08 06:55 | 39.55597 | -106.11685 | 24795 ft | 435 kts | 249° |
| 2026-05-08 06:55 | 39.54489 | -106.15352 | 25023 ft | 438 kts | 249° |
| 2026-05-08 06:55 | 39.53377 | -106.19037 | 25219 ft | 440 kts | 249° |
| 2026-05-08 06:55 | 39.52257 | -106.22740 | 25429 ft | 442 kts | 249° |
| 2026-05-08 06:56 | 39.51130 | -106.26452 | 25625 ft | 444 kts | 249° |
| 2026-05-08 06:56 | 39.49996 | -106.30183 | 25867 ft | 445 kts | 249° |
| 2026-05-08 06:56 | 39.48864 | -106.33915 | 26071 ft | 447 kts | 249° |
| 2026-05-08 06:56 | 39.47722 | -106.37668 | 26358 ft | 447 kts | 249° |
| 2026-05-08 06:57 | 39.46576 | -106.41420 | 26562 ft | 449 kts | 248° |
| 2026-05-08 06:57 | 39.45423 | -106.45188 | 26699 ft | 452 kts | 248° |
| 2026-05-08 06:57 | 39.44261 | -106.48978 | 26865 ft | 454 kts | 248° |
| 2026-05-08 06:57 | 39.43094 | -106.52772 | 27026 ft | 455 kts | 248° |
| 2026-05-08 06:58 | 39.41924 | -106.56577 | 27191 ft | 456 kts | 248° |
| 2026-05-08 06:58 | 39.40752 | -106.60397 | 27364 ft | 457 kts | 248° |
| 2026-05-08 06:58 | 39.39575 | -106.64222 | 27612 ft | 458 kts | 248° |
| 2026-05-08 06:58 | 39.38400 | -106.68040 | 27863 ft | 458 kts | 248° |
| 2026-05-08 06:59 | 39.37225 | -106.71865 | 28101 ft | 459 kts | 248° |
| 2026-05-08 06:59 | 39.36042 | -106.75702 | 28361 ft | 459 kts | 248° |
| 2026-05-08 06:59 | 39.34856 | -106.79531 | 28601 ft | 460 kts | 248° |
| 2026-05-08 06:59 | 39.33662 | -106.83376 | 28753 ft | 462 kts | 248° |
| 2026-05-08 07:00 | 39.32461 | -106.87240 | 28906 ft | 464 kts | 248° |
| 2026-05-08 07:00 | 39.31257 | -106.91111 | 29101 ft | 465 kts | 248° |
| 2026-05-08 07:00 | 39.30049 | -106.94991 | 29333 ft | 466 kts | 248° |
| 2026-05-08 07:00 | 39.28840 | -106.98869 | 29580 ft | 466 kts | 248° |
| 2026-05-08 07:01 | 39.27624 | -107.02766 | 29788 ft | 468 kts | 248° |
| 2026-05-08 07:01 | 39.26405 | -107.06664 | 29960 ft | 469 kts | 248° |
| 2026-05-08 07:01 | 39.25177 | -107.10580 | 30116 ft | 471 kts | 248° |
| 2026-05-08 07:01 | 39.23947 | -107.14508 | 30230 ft | 473 kts | 248° |
| 2026-05-08 07:02 | 39.22713 | -107.18443 | 30358 ft | 474 kts | 248° |
| 2026-05-08 07:02 | 39.21472 | -107.22389 | 30590 ft | 474 kts | 248° |
| 2026-05-08 07:02 | 39.20233 | -107.26319 | 30910 ft | 472 kts | 248° |
| 2026-05-08 07:02 | 39.18995 | -107.30240 | 31169 ft | 472 kts | 248° |
| 2026-05-08 07:03 | 39.17758 | -107.34155 | 31385 ft | 472 kts | 248° |
| 2026-05-08 07:03 | 39.16519 | -107.38076 | 31519 ft | 473 kts | 248° |
| 2026-05-08 07:03 | 39.15277 | -107.41998 | 31772 ft | 472 kts | 248° |
| 2026-05-08 07:03 | 39.14036 | -107.45908 | 32118 ft | 470 kts | 248° |
| 2026-05-08 07:04 | 39.12801 | -107.49794 | 32392 ft | 469 kts | 248° |
| 2026-05-08 07:04 | 39.11563 | -107.53679 | 32615 ft | 469 kts | 248° |
| 2026-05-08 07:04 | 39.10321 | -107.57571 | 32840 ft | 469 kts | 248° |
| 2026-05-08 07:04 | 39.09080 | -107.61452 | 33022 ft | 469 kts | 248° |
| 2026-05-08 07:05 | 39.07837 | -107.65338 | 33178 ft | 470 kts | 248° |
| 2026-05-08 07:05 | 39.06592 | -107.69228 | 33334 ft | 470 kts | 248° |
| 2026-05-08 07:05 | 39.05346 | -107.73114 | 33467 ft | 471 kts | 248° |
| 2026-05-08 07:05 | 39.04094 | -107.77013 | 33621 ft | 471 kts | 248° |
| 2026-05-08 07:06 | 39.02845 | -107.80903 | 33806 ft | 470 kts | 248° |
| 2026-05-08 07:06 | 39.01597 | -107.84784 | 34054 ft | 469 kts | 248° |
| 2026-05-08 07:06 | 39.00352 | -107.88649 | 34300 ft | 467 kts | 248° |
| 2026-05-08 07:06 | 38.99106 | -107.92508 | 34515 ft | 467 kts | 248° |
| 2026-05-08 07:07 | 38.97861 | -107.96355 | 34773 ft | 465 kts | 247° |
| 2026-05-08 07:07 | 38.96619 | -108.00181 | 35034 ft | 464 kts | 247° |
| 2026-05-08 07:07 | 38.95374 | -108.04007 | 35248 ft | 463 kts | 247° |
| 2026-05-08 07:07 | 38.94135 | -108.07819 | 35451 ft | 463 kts | 247° |
| 2026-05-08 07:08 | 38.92896 | -108.11636 | 35587 ft | 463 kts | 247° |
| 2026-05-08 07:08 | 38.91657 | -108.15458 | 35712 ft | 463 kts | 247° |
| 2026-05-08 07:08 | 38.90418 | -108.19275 | 35839 ft | 464 kts | 247° |
| 2026-05-08 07:08 | 38.89173 | -108.23092 | 35980 ft | 462 kts | 247° |
| 2026-05-08 07:09 | 38.86705 | -108.30634 | 36010 ft | 455 kts | 247° |
| 2026-05-08 07:09 | 38.84252 | -108.38094 | 36007 ft | 453 kts | 247° |
| 2026-05-08 07:10 | 38.81801 | -108.45539 | 36010 ft | 454 kts | 247° |
| 2026-05-08 07:10 | 38.79344 | -108.53009 | 36011 ft | 456 kts | 247° |
| 2026-05-08 07:11 | 38.76877 | -108.60504 | 36002 ft | 456 kts | 247° |
| 2026-05-08 07:11 | 38.74397 | -108.67996 | 36000 ft | 457 kts | 247° |
| 2026-05-08 07:12 | 38.71900 | -108.75507 | 35999 ft | 458 kts | 247° |
| 2026-05-08 07:12 | 38.69391 | -108.83020 | 36008 ft | 459 kts | 247° |
| 2026-05-08 07:13 | 38.66882 | -108.90533 | 36021 ft | 459 kts | 247° |
| 2026-05-08 07:13 | 38.64365 | -108.98039 | 36035 ft | 458 kts | 247° |
| 2026-05-08 07:14 | 38.61856 | -109.05509 | 36029 ft | 457 kts | 247° |
| 2026-05-08 07:14 | 38.59348 | -109.12971 | 36019 ft | 457 kts | 247° |
| 2026-05-08 07:15 | 38.56829 | -109.20444 | 36013 ft | 458 kts | 246° |
| 2026-05-08 07:15 | 38.54295 | -109.27927 | 36002 ft | 460 kts | 246° |
| 2026-05-08 07:16 | 38.51746 | -109.35426 | 36013 ft | 460 kts | 246° |
| 2026-05-08 07:16 | 38.49197 | -109.42918 | 36034 ft | 459 kts | 246° |
| 2026-05-08 07:17 | 38.46660 | -109.50391 | 36038 ft | 457 kts | 246° |
| 2026-05-08 07:17 | 38.44125 | -109.57825 | 36038 ft | 456 kts | 246° |
| 2026-05-08 07:18 | 38.41592 | -109.65212 | 36034 ft | 454 kts | 246° |
| 2026-05-08 07:18 | 38.39055 | -109.72587 | 36030 ft | 454 kts | 246° |
| 2026-05-08 07:19 | 38.36521 | -109.79942 | 36032 ft | 453 kts | 246° |
| 2026-05-08 07:19 | 38.33988 | -109.87276 | 36024 ft | 452 kts | 246° |
| 2026-05-08 07:20 | 38.31451 | -109.94604 | 36021 ft | 452 kts | 246° |
| 2026-05-08 07:20 | 38.28907 | -110.01927 | 36023 ft | 452 kts | 246° |
| 2026-05-08 07:21 | 38.26366 | -110.09250 | 36012 ft | 453 kts | 246° |
| 2026-05-08 07:21 | 38.23833 | -110.16590 | 36013 ft | 454 kts | 246° |
| 2026-05-08 07:22 | 38.21287 | -110.23949 | 36015 ft | 455 kts | 246° |
| 2026-05-08 07:22 | 38.18734 | -110.31301 | 36019 ft | 455 kts | 246° |
| 2026-05-08 07:23 | 38.16169 | -110.38650 | 36025 ft | 455 kts | 246° |
| 2026-05-08 07:23 | 38.13599 | -110.45975 | 36031 ft | 454 kts | 246° |
| 2026-05-08 07:24 | 38.11036 | -110.53298 | 36031 ft | 453 kts | 246° |
| 2026-05-08 07:24 | 38.08478 | -110.60594 | 36025 ft | 452 kts | 246° |
| 2026-05-08 07:25 | 38.05911 | -110.67881 | 36020 ft | 452 kts | 246° |
| 2026-05-08 07:26 | 38.02051 | -110.78815 | 35998 ft | 454 kts | 246° |
| 2026-05-08 07:26 | 37.99455 | -110.86138 | 36002 ft | 456 kts | 246° |
| 2026-05-08 07:27 | 37.96849 | -110.93467 | 36013 ft | 456 kts | 246° |
| 2026-05-08 07:27 | 37.94246 | -111.00788 | 36019 ft | 456 kts | 246° |
| 2026-05-08 07:28 | 37.91641 | -111.08104 | 36025 ft | 455 kts | 246° |
| 2026-05-08 07:28 | 37.89024 | -111.15411 | 36024 ft | 456 kts | 245° |
| 2026-05-08 07:29 | 37.86402 | -111.22713 | 36028 ft | 455 kts | 245° |
| 2026-05-08 07:29 | 37.83784 | -111.29993 | 36027 ft | 455 kts | 245° |
| 2026-05-08 07:30 | 37.81158 | -111.37273 | 36026 ft | 454 kts | 245° |
| 2026-05-08 07:30 | 37.78541 | -111.44533 | 36025 ft | 454 kts | 245° |
| 2026-05-08 07:31 | 37.75915 | -111.51785 | 36020 ft | 453 kts | 245° |
| 2026-05-08 07:31 | 37.73289 | -111.59021 | 36016 ft | 453 kts | 245° |
| 2026-05-08 07:32 | 37.70662 | -111.66256 | 36008 ft | 453 kts | 245° |
| 2026-05-08 07:32 | 37.68473 | -111.72260 | 36003 ft | 453 kts | 245° |
| 2026-05-08 07:33 | 37.65825 | -111.79495 | 35997 ft | 454 kts | 245° |
| 2026-05-08 07:33 | 37.63170 | -111.86736 | 35994 ft | 455 kts | 245° |
| 2026-05-08 07:34 | 37.60510 | -111.93988 | 36004 ft | 456 kts | 245° |
| 2026-05-08 07:34 | 37.57842 | -112.01246 | 36015 ft | 456 kts | 245° |
| 2026-05-08 07:35 | 37.55166 | -112.08483 | 36022 ft | 455 kts | 245° |
| 2026-05-08 07:35 | 37.52232 | -112.15540 | 36019 ft | 454 kts | 236° |
| 2026-05-08 07:36 | 37.48734 | -112.22171 | 36012 ft | 455 kts | 236° |
| 2026-05-08 07:36 | 37.45223 | -112.28809 | 36000 ft | 456 kts | 236° |
| 2026-05-08 07:37 | 37.41697 | -112.35465 | 35994 ft | 458 kts | 236° |
| 2026-05-08 07:37 | 37.38139 | -112.42176 | 36006 ft | 458 kts | 236° |
| 2026-05-08 07:38 | 37.34601 | -112.48835 | 36021 ft | 458 kts | 236° |
| 2026-05-08 07:38 | 37.31063 | -112.55478 | 36026 ft | 457 kts | 236° |
| 2026-05-08 07:39 | 37.27539 | -112.62098 | 36025 ft | 456 kts | 236° |
| 2026-05-08 07:39 | 37.24008 | -112.68704 | 36032 ft | 455 kts | 236° |
| 2026-05-08 07:40 | 37.20479 | -112.75289 | 36029 ft | 454 kts | 236° |
| 2026-05-08 07:40 | 37.16957 | -112.81846 | 36029 ft | 453 kts | 236° |
| 2026-05-08 07:41 | 37.13452 | -112.88358 | 36024 ft | 453 kts | 236° |
| 2026-05-08 07:41 | 37.09929 | -112.94892 | 36016 ft | 453 kts | 236° |
| 2026-05-08 07:42 | 37.06401 | -113.01426 | 35910 ft | 454 kts | 236° |
| 2026-05-08 07:42 | 37.04632 | -113.04702 | 35660 ft | 453 kts | 236° |
| 2026-05-08 07:42 | 37.02868 | -113.07969 | 35390 ft | 452 kts | 236° |
| 2026-05-08 07:42 | 37.01102 | -113.11235 | 34662 ft | 455 kts | 236° |
| 2026-05-08 07:43 | 36.99317 | -113.14527 | 33856 ft | 459 kts | 236° |
| 2026-05-08 07:43 | 36.97516 | -113.17842 | 33102 ft | 461 kts | 236° |
| 2026-05-08 07:43 | 36.95719 | -113.21144 | 32587 ft | 458 kts | 236° |
| 2026-05-08 07:43 | 36.93910 | -113.24473 | 31997 ft | 456 kts | 236° |
| 2026-05-08 07:44 | 36.92135 | -113.27737 | 31435 ft | 453 kts | 236° |
| 2026-05-08 07:44 | 36.90388 | -113.30943 | 30868 ft | 450 kts | 236° |
| 2026-05-08 07:44 | 36.88632 | -113.34162 | 30315 ft | 447 kts | 236° |
| 2026-05-08 07:44 | 36.86885 | -113.37364 | 29765 ft | 444 kts | 236° |
| 2026-05-08 07:45 | 36.85147 | -113.40543 | 29207 ft | 441 kts | 236° |
| 2026-05-08 07:45 | 36.83422 | -113.43696 | 28671 ft | 438 kts | 236° |
| 2026-05-08 07:45 | 36.81708 | -113.46823 | 28129 ft | 435 kts | 236° |
| 2026-05-08 07:45 | 36.80008 | -113.49920 | 27608 ft | 431 kts | 236° |
| 2026-05-08 07:46 | 36.78321 | -113.52995 | 27078 ft | 427 kts | 236° |
| 2026-05-08 07:46 | 36.76651 | -113.56036 | 26584 ft | 424 kts | 236° |
| 2026-05-08 07:46 | 36.74994 | -113.59054 | 26088 ft | 420 kts | 236° |
| 2026-05-08 07:46 | 36.73351 | -113.62043 | 25609 ft | 415 kts | 236° |
| 2026-05-08 07:47 | 36.71724 | -113.64995 | 25141 ft | 410 kts | 236° |
| 2026-05-08 07:47 | 36.70118 | -113.67911 | 24680 ft | 406 kts | 236° |
| 2026-05-08 07:47 | 36.68530 | -113.70793 | 24221 ft | 401 kts | 236° |
| 2026-05-08 07:47 | 36.66963 | -113.73642 | 23760 ft | 397 kts | 236° |
| 2026-05-08 07:48 | 36.65410 | -113.76461 | 23307 ft | 392 kts | 236° |
| 2026-05-08 07:48 | 36.63872 | -113.79244 | 22850 ft | 388 kts | 236° |
| 2026-05-08 07:48 | 36.62349 | -113.81996 | 22399 ft | 384 kts | 236° |
| 2026-05-08 07:48 | 36.60841 | -113.84721 | 21943 ft | 380 kts | 236° |
| 2026-05-08 07:49 | 36.59342 | -113.87423 | 21486 ft | 377 kts | 236° |
| 2026-05-08 07:49 | 36.57860 | -113.90091 | 21037 ft | 374 kts | 235° |
| 2026-05-08 07:49 | 36.56384 | -113.92739 | 20582 ft | 371 kts | 235° |
| 2026-05-08 07:49 | 36.54920 | -113.95366 | 20113 ft | 368 kts | 235° |
| 2026-05-08 07:50 | 36.53470 | -113.97975 | 19674 ft | 365 kts | 236° |
| 2026-05-08 07:50 | 36.52033 | -114.00570 | 19223 ft | 363 kts | 236° |
| 2026-05-08 07:50 | 36.50605 | -114.03144 | 18781 ft | 360 kts | 236° |
| 2026-05-08 07:50 | 36.49186 | -114.05695 | 18369 ft | 357 kts | 236° |
| 2026-05-08 07:51 | 36.47781 | -114.08215 | 17959 ft | 354 kts | 235° |
| 2026-05-08 07:51 | 36.46385 | -114.10714 | 17655 ft | 347 kts | 235° |
| 2026-05-08 07:51 | 36.45030 | -114.13135 | 17528 ft | 335 kts | 235° |
| 2026-05-08 07:51 | 36.43720 | -114.15472 | 17400 ft | 324 kts | 235° |
| 2026-05-08 07:52 | 36.42451 | -114.17735 | 17267 ft | 314 kts | 235° |
| 2026-05-08 07:52 | 36.41225 | -114.19923 | 17150 ft | 303 kts | 235° |
| 2026-05-08 07:52 | 36.40042 | -114.22036 | 17019 ft | 293 kts | 235° |
| 2026-05-08 07:52 | 36.38859 | -114.24095 | 16830 ft | 286 kts | 233° |
| 2026-05-08 07:53 | 36.37650 | -114.26043 | 16520 ft | 283 kts | 232° |
| 2026-05-08 07:53 | 36.36423 | -114.27948 | 16186 ft | 282 kts | 231° |
| 2026-05-08 07:53 | 36.35197 | -114.29830 | 15882 ft | 279 kts | 231° |
| 2026-05-08 07:53 | 36.33997 | -114.31679 | 15554 ft | 278 kts | 231° |
| 2026-05-08 07:54 | 36.32792 | -114.33546 | 15237 ft | 276 kts | 232° |
| 2026-05-08 07:54 | 36.31599 | -114.35404 | 14913 ft | 275 kts | 232° |
| 2026-05-08 07:54 | 36.30413 | -114.37257 | 14592 ft | 273 kts | 232° |
| 2026-05-08 07:54 | 36.29232 | -114.39106 | 14285 ft | 272 kts | 232° |
| 2026-05-08 07:55 | 36.28043 | -114.40967 | 13812 ft | 276 kts | 232° |
| 2026-05-08 07:55 | 36.26856 | -114.42825 | 13331 ft | 281 kts | 232° |
| 2026-05-08 07:55 | 36.25630 | -114.44742 | 12834 ft | 286 kts | 232° |
| 2026-05-08 07:55 | 36.24381 | -114.46686 | 12332 ft | 291 kts | 231° |
| 2026-05-08 07:56 | 36.23128 | -114.48612 | 12167 ft | 282 kts | 231° |
| 2026-05-08 07:56 | 36.21909 | -114.50471 | 12026 ft | 273 kts | 231° |
| 2026-05-08 07:56 | 36.20734 | -114.52264 | 11850 ft | 265 kts | 231° |
| 2026-05-08 07:56 | 36.19582 | -114.54026 | 11563 ft | 262 kts | 231° |
| 2026-05-08 07:57 | 36.18439 | -114.55777 | 11245 ft | 260 kts | 231° |
| 2026-05-08 07:57 | 36.17302 | -114.57515 | 10923 ft | 259 kts | 231° |
| 2026-05-08 07:57 | 36.16176 | -114.59235 | 10660 ft | 254 kts | 231° |
| 2026-05-08 07:57 | 36.15081 | -114.60905 | 10474 ft | 247 kts | 231° |
| 2026-05-08 07:58 | 36.13984 | -114.62581 | 9881 ft | 257 kts | 231° |
| 2026-05-08 07:58 | 36.12838 | -114.64332 | 9188 ft | 263 kts | 231° |
| 2026-05-08 07:58 | 36.11682 | -114.66095 | 8565 ft | 263 kts | 231° |
| 2026-05-08 07:58 | 36.10548 | -114.67823 | 8397 ft | 254 kts | 231° |
| 2026-05-08 07:59 | 36.09458 | -114.69482 | 8274 ft | 244 kts | 231° |
| 2026-05-08 07:59 | 36.08409 | -114.71085 | 8167 ft | 238 kts | 232° |
| 2026-05-08 07:59 | 36.07609 | -114.72852 | 8066 ft | 236 kts | 252° |
| 2026-05-08 07:59 | 36.07323 | -114.74845 | 7906 ft | 236 kts | 268° |
| 2026-05-08 08:00 | 36.07309 | -114.76868 | 7623 ft | 235 kts | 271° |
| 2026-05-08 08:00 | 36.07328 | -114.78883 | 7321 ft | 234 kts | 270° |
| 2026-05-08 08:00 | 36.07337 | -114.80878 | 7027 ft | 232 kts | 270° |
| 2026-05-08 08:00 | 36.07341 | -114.82861 | 6705 ft | 229 kts | 270° |
| 2026-05-08 08:01 | 36.07345 | -114.84803 | 6417 ft | 222 kts | 270° |
| 2026-05-08 08:01 | 36.07348 | -114.86655 | 6122 ft | 210 kts | 270° |
| 2026-05-08 08:01 | 36.07351 | -114.88419 | 5845 ft | 201 kts | 270° |
| 2026-05-08 08:01 | 36.07353 | -114.90096 | 5613 ft | 188 kts | 270° |
| 2026-05-08 08:02 | 36.07356 | -114.91664 | 5346 ft | 177 kts | 270° |
| 2026-05-08 08:02 | 36.07357 | -114.93150 | 5113 ft | 169 kts | 270° |
| 2026-05-08 08:02 | 36.07359 | -114.94592 | 4896 ft | 165 kts | 270° |
| 2026-05-08 08:02 | 36.07360 | -114.95963 | 4684 ft | 157 kts | 270° |
| 2026-05-08 08:03 | 36.07362 | -114.97298 | 4478 ft | 154 kts | 270° |
| 2026-05-08 08:03 | 36.07363 | -114.98613 | 4274 ft | 152 kts | 270° |
| 2026-05-08 08:03 | 36.07364 | -114.99920 | 4074 ft | 152 kts | 270° |
| 2026-05-08 08:03 | 36.07364 | -115.01222 | 3873 ft | 151 kts | 270° |
| 2026-05-08 08:04 | 36.07358 | -115.02520 | 3653 ft | 151 kts | 269° |
| 2026-05-08 08:04 | 36.07340 | -115.03812 | 3425 ft | 150 kts | 269° |
| 2026-05-08 08:04 | 36.07348 | -115.05099 | 3252 ft | 150 kts | 272° |
| 2026-05-08 08:04 | 36.07368 | -115.06384 | 3042 ft | 149 kts | 269° |
| 2026-05-08 08:05 | 36.07352 | -115.07667 | 2895 ft | 149 kts | 269° |
| 2026-05-08 08:05 | 36.07361 | -115.08948 | 2697 ft | 149 kts | 270° |
| 2026-05-08 08:05 | 36.07365 | -115.10227 | 2502 ft | 148 kts | 270° |
| 2026-05-08 08:05 | 36.07367 | -115.11500 | 2292 ft | 148 kts | 270° |
| 2026-05-08 08:06 | 36.07371 | -115.12771 | 2093 ft | 147 kts | 270° |
| 2026-05-08 08:06 | 36.07373 | -115.13868 | 2097 ft | 98 kts | 269° |
| 2026-05-08 08:06 | 36.07379 | -115.14341 | 2116 ft | 36 kts | 284° |
| 2026-05-08 08:06 | 36.07472 | -115.14589 | 2126 ft | 20 kts | 303° |
| 2026-05-08 08:07 | 36.07594 | -115.14653 | 2132 ft | 24 kts | 358° |
| 2026-05-08 08:07 | 36.07742 | -115.14661 | 2129 ft | 15 kts | 353° |
| 2026-05-08 08:07 | 36.07830 | -115.14717 | 2130 ft | 13 kts | 341° |
| 2026-05-08 08:07 | 36.07916 | -115.14734 | 2129 ft | 12 kts | 351° |
| 2026-05-08 08:08 | 36.07991 | -115.14778 | 2129 ft | 13 kts | 325° |
| 2026-05-08 08:08 | 36.08061 | -115.14834 | 2129 ft | 11 kts | 334° |
| 2026-05-08 08:08 | 36.08120 | -115.14865 | 2128 ft | 8 kts | 344° |
| 2026-05-08 08:08 | 36.08160 | -115.14835 | 2128 ft | 7 kts | 68° |
| 2026-05-08 08:09 | 36.08168 | -115.14812 | 2125 ft | 0 kts | 68° |